San Jose del Cabo (SJD/MMSD)

Map

Destinations

Information

Location
San Jose del Cabo, Baja California Sur, Mexico
MMSD -
Bad Timezone: GMT-07:00
Local Time
GMT Time
00:10 / 12:10 am
Gates
Unassigned
No FAA reported delays
METAR MMSD 222350Z 14009KT 15SM FEW140 SCT250 27/16 A2989 RMK SLP113 57008 957 8/038
TAF TAF MMSD 221651Z 2218/2318 17015KT P6SM SCT230 BECMG 2302/2303 22010KT FM231100 32010KT 5SM HZ BKN015 FM231500 32010KT 5SM HZ BKN025
  • No charts available